createdAt,value
2022-11-24T00:01:09.045Z,72.37
2022-11-24T00:03:37.047Z,73.29
2022-11-24T00:06:07.213Z,75.29
2022-11-24T00:08:35.218Z,78.42
2022-11-24T00:11:07.743Z,79.71
2022-11-24T00:13:36.140Z,79.08
2022-11-24T00:16:12.969Z,79.05
2022-11-24T00:18:42.133Z,79.90
2022-11-24T00:21:10.507Z,79.89
2022-11-24T00:23:38.880Z,79.83
2022-11-24T00:26:08.736Z,79.43
2022-11-24T00:28:37.294Z,79.03
2022-11-24T00:31:06.607Z,79.44
2022-11-24T00:33:35.966Z,79.62
2022-11-24T00:36:03.851Z,79.07
2022-11-24T00:38:31.743Z,78.51
2022-11-24T00:40:59.748Z,78.73
2022-11-24T00:43:27.768Z,78.98
2022-11-24T00:45:55.764Z,78.87
2022-11-24T00:48:23.990Z,78.58
2022-11-24T00:51:00.892Z,78.61
2022-11-24T00:53:29.060Z,78.29
2022-11-24T00:55:57.050Z,77.96
2022-11-24T00:58:25.497Z,77.94
2022-11-24T01:00:53.934Z,77.64
2022-11-24T01:03:22.200Z,77.59
2022-11-24T01:05:50.288Z,78.04
2022-11-24T01:08:19.559Z,77.78
2022-11-24T01:10:47.471Z,77.03
2022-11-24T01:13:15.327Z,77.34
2022-11-24T01:15:43.261Z,77.18
2022-11-24T01:18:11.225Z,77.34
2022-11-24T01:20:39.190Z,77.08
2022-11-24T01:23:07.676Z,76.94
2022-11-24T01:25:40.494Z,77.14
2022-11-24T01:28:08.427Z,76.50
2022-11-24T01:30:36.384Z,75.99
2022-11-24T01:33:05.048Z,76.37
2022-11-24T01:35:32.917Z,76.20
2022-11-24T01:38:00.836Z,75.19
2022-11-24T01:40:28.692Z,75.16
2022-11-24T01:42:57.929Z,75.25
2022-11-24T01:45:37.072Z,75.02
2022-11-24T01:48:07.381Z,74.49
2022-11-24T01:50:36.803Z,74.97
2022-11-24T01:53:05.948Z,74.72
2022-11-24T01:55:38.033Z,74.43
2022-11-24T01:58:09.567Z,74.73
2022-11-24T02:00:39.670Z,74.53
2022-11-24T02:03:08.139Z,74.45
2022-11-24T02:05:41.423Z,74.19
2022-11-24T02:08:14.234Z,75.03
2022-11-24T02:10:42.271Z,74.80
2022-11-24T02:13:11.622Z,74.83
2022-11-24T02:15:39.605Z,74.86
2022-11-24T02:18:07.516Z,74.55
2022-11-24T02:20:35.397Z,73.95
2022-11-24T02:23:07.008Z,74.23
2022-11-24T02:25:40.572Z,74.03
2022-11-24T02:28:13.535Z,74.16
2022-11-24T02:30:41.622Z,73.99
2022-11-24T02:33:10.912Z,74.33
2022-11-24T02:35:39.004Z,73.91
2022-11-24T02:38:06.925Z,72.83
2022-11-24T02:40:34.873Z,72.43
2022-11-24T02:43:06.516Z,72.59
2022-11-24T02:45:35.796Z,71.99
2022-11-24T02:48:03.765Z,72.12
2022-11-24T02:50:31.645Z,72.29
2022-11-24T02:52:59.505Z,71.98
2022-11-24T02:55:27.447Z,71.90
2022-11-24T02:57:55.404Z,71.56
2022-11-24T03:00:23.513Z,71.59
2022-11-24T03:02:52.831Z,70.78
2022-11-24T03:05:20.829Z,70.82
2022-11-24T03:07:48.812Z,70.53
2022-11-24T03:10:17.168Z,70.94
2022-11-24T03:12:45.026Z,70.18
2022-11-24T03:15:13.010Z,70.76
2022-11-24T03:17:40.888Z,70.38
2022-11-24T03:20:11.844Z,70.30
2022-11-24T03:22:39.739Z,70.52
2022-11-24T03:25:08.148Z,70.46
2022-11-24T03:27:36.036Z,70.36
2022-11-24T03:30:03.905Z,71.02
2022-11-24T03:32:31.770Z,71.05
2022-11-24T03:34:59.619Z,71.24
2022-11-24T03:37:28.997Z,70.78
2022-11-24T03:39:56.862Z,70.95
2022-11-24T03:42:24.865Z,70.91
2022-11-24T03:44:52.804Z,70.87
2022-11-24T03:47:20.748Z,70.76
2022-11-24T03:49:48.662Z,70.22
2022-11-24T03:52:16.542Z,69.65
2022-11-24T03:54:47.733Z,70.53
2022-11-24T03:57:15.607Z,70.59
2022-11-24T03:59:43.539Z,70.72
2022-11-24T04:02:11.532Z,70.39
2022-11-24T04:04:39.460Z,71.00
2022-11-24T04:07:07.389Z,70.43
2022-11-24T04:09:35.436Z,69.43
2022-11-24T04:12:22.340Z,69.25
2022-11-24T04:14:50.149Z,70.16
2022-11-24T04:17:17.894Z,70.38
2022-11-24T04:19:45.653Z,70.01
2022-11-24T04:22:13.467Z,70.12
2022-11-24T04:24:41.276Z,70.48
2022-11-24T04:27:10.372Z,69.54
2022-11-24T04:29:38.221Z,69.65
2022-11-24T04:32:06.358Z,69.17
2022-11-24T04:34:34.327Z,68.51
2022-11-24T04:37:02.328Z,68.21
2022-11-24T04:39:30.132Z,68.33
2022-11-24T04:41:58.587Z,68.19
2022-11-24T04:44:27.897Z,68.43
2022-11-24T04:46:55.713Z,68.98
2022-11-24T04:49:23.612Z,70.45
2022-11-24T04:51:51.649Z,70.92
2022-11-24T04:54:19.405Z,71.20
2022-11-24T04:56:51.705Z,70.65
2022-11-24T04:59:20.064Z,70.22
2022-11-24T05:01:49.240Z,70.47
2022-11-24T05:04:20.289Z,70.89
2022-11-24T05:06:48.090Z,71.21
2022-11-24T05:09:16.916Z,71.67
2022-11-24T05:11:43.929Z,71.85
2022-11-24T05:14:11.738Z,71.79
2022-11-24T05:16:39.602Z,71.62
2022-11-24T05:19:08.772Z,71.21
2022-11-24T05:21:36.558Z,71.37
2022-11-24T05:24:04.634Z,71.96
2022-11-24T05:26:32.349Z,72.82
2022-11-24T05:29:00.175Z,73.48
2022-11-24T05:31:28.031Z,74.14
2022-11-24T05:33:55.795Z,73.87
2022-11-24T05:36:42.197Z,73.92
2022-11-24T05:39:10.099Z,73.43
2022-11-24T05:41:37.927Z,74.01
2022-11-24T05:44:05.909Z,74.39
2022-11-24T05:46:33.985Z,74.25
2022-11-24T05:49:01.754Z,74.56
2022-11-24T05:51:33.278Z,74.19
2022-11-24T05:54:01.009Z,73.73
2022-11-24T05:56:28.833Z,74.38
2022-11-24T05:58:56.547Z,74.97
2022-11-24T06:01:24.336Z,74.80
2022-11-24T06:03:52.193Z,73.98
2022-11-24T06:06:19.957Z,73.95
2022-11-24T06:08:49.041Z,74.02
2022-11-24T06:11:19.691Z,73.88
2022-11-24T06:13:48.756Z,73.50
2022-11-24T06:16:16.818Z,72.29
2022-11-24T06:18:44.552Z,72.96
2022-11-24T06:21:12.418Z,72.84
2022-11-24T06:23:40.382Z,71.89
2022-11-24T06:26:09.776Z,71.42
2022-11-24T06:28:37.545Z,70.84
2022-11-24T06:31:06.593Z,70.63
2022-11-24T06:33:35.462Z,71.10
2022-11-24T06:36:04.739Z,71.83
2022-11-24T06:38:32.684Z,71.97
2022-11-24T06:41:01.787Z,71.37
2022-11-24T06:43:31.513Z,71.95
2022-11-24T06:45:59.550Z,71.96
2022-11-24T06:48:27.904Z,71.85
2022-11-24T06:50:59.554Z,71.34
2022-11-24T06:53:27.523Z,71.45
2022-11-24T06:55:58.864Z,71.60
2022-11-24T06:58:26.684Z,70.95
2022-11-24T07:00:55.863Z,70.42
2022-11-24T07:03:23.749Z,70.48
2022-11-24T07:05:57.169Z,69.89
2022-11-24T07:08:25.203Z,70.28
2022-11-24T07:10:53.440Z,70.05
2022-11-24T07:13:21.355Z,70.05
2022-11-24T07:15:49.149Z,69.42
2022-11-24T07:18:18.436Z,68.69
2022-11-24T07:20:46.181Z,68.83
2022-11-24T07:23:15.092Z,68.36
2022-11-24T07:25:42.806Z,68.36
2022-11-24T07:28:10.692Z,69.05
2022-11-24T07:30:38.440Z,69.26
2022-11-24T07:33:06.215Z,68.74
2022-11-24T07:35:35.301Z,68.56
2022-11-24T07:38:03.101Z,69.22
2022-11-24T07:40:31.072Z,68.83
2022-11-24T07:43:01.731Z,68.79
2022-11-24T07:45:31.460Z,68.67
2022-11-24T07:47:59.249Z,68.28
2022-11-24T07:50:27.087Z,68.53
2022-11-24T07:52:56.194Z,67.44
2022-11-24T07:55:23.941Z,66.61
2022-11-24T07:57:51.729Z,66.15
2022-11-24T08:00:20.058Z,65.90
2022-11-24T08:02:47.831Z,66.05
2022-11-24T08:05:15.775Z,66.15
2022-11-24T08:07:43.601Z,66.42
2022-11-24T08:10:12.838Z,66.37
2022-11-24T08:12:41.125Z,65.86
2022-11-24T08:15:11.580Z,66.23
2022-11-24T08:17:39.476Z,65.82
2022-11-24T08:20:08.984Z,64.98
2022-11-24T08:22:36.780Z,64.24
2022-11-24T08:25:04.881Z,65.25
2022-11-24T08:27:33.980Z,66.05
2022-11-24T08:30:01.806Z,65.40
2022-11-24T08:32:29.569Z,65.73
2022-11-24T08:35:08.543Z,65.87
2022-11-24T08:37:41.500Z,66.04
2022-11-24T08:40:10.512Z,65.50
2022-11-24T08:42:39.711Z,66.47
2022-11-24T08:45:19.884Z,67.19
2022-11-24T08:47:52.769Z,67.14
2022-11-24T08:50:20.609Z,66.52
2022-11-24T08:52:48.525Z,66.66
2022-11-24T08:55:16.358Z,65.66
2022-11-24T08:57:45.507Z,65.49
2022-11-24T09:00:14.682Z,65.31
2022-11-24T09:02:42.860Z,64.94
2022-11-24T09:05:43.217Z,64.26
2022-11-24T09:07:59.115Z,65.25
2022-11-24T09:10:26.908Z,66.20
2022-11-24T09:12:56.005Z,65.95
2022-11-24T09:15:23.816Z,65.14
2022-11-24T09:17:51.551Z,65.09
2022-11-24T09:20:19.609Z,64.07
2022-11-24T09:22:47.608Z,64.34
2022-11-24T09:25:15.437Z,65.25
2022-11-24T09:27:43.392Z,66.56
2022-11-24T09:30:14.081Z,66.43
2022-11-24T09:32:41.889Z,67.30
2022-11-24T09:35:09.873Z,68.91
2022-11-24T09:37:37.790Z,68.79
2022-11-24T09:40:06.795Z,69.30
2022-11-24T09:42:40.253Z,69.87
2022-11-24T09:45:26.270Z,69.71
2022-11-24T09:48:05.540Z,68.79
2022-11-24T09:50:35.132Z,68.57
2022-11-24T09:53:07.247Z,67.75
2022-11-24T09:55:39.695Z,67.70
2022-11-24T09:58:30.801Z,67.99
2022-11-24T10:01:00.129Z,67.45
2022-11-24T10:03:31.469Z,69.44
2022-11-24T10:05:59.836Z,69.04
2022-11-24T10:08:45.477Z,68.97
2022-11-24T10:11:14.825Z,69.29
2022-11-24T10:13:59.302Z,67.52
2022-11-24T10:16:38.764Z,66.42
2022-11-24T10:19:14.504Z,67.63
2022-11-24T10:21:51.742Z,67.84
2022-11-24T10:24:29.879Z,67.64
2022-11-24T10:27:02.332Z,67.18
2022-11-24T10:29:33.640Z,67.47
2022-11-24T10:32:06.469Z,67.44
2022-11-24T10:34:36.221Z,67.02
2022-11-24T10:37:07.799Z,66.28
2022-11-24T10:39:40.271Z,66.24
2022-11-24T10:42:13.326Z,66.37
2022-11-24T10:44:42.002Z,66.04
2022-11-24T10:47:18.650Z,64.87
2022-11-24T10:49:56.448Z,65.43
2022-11-24T10:52:25.930Z,66.26
2022-11-24T10:54:58.248Z,67.88
2022-11-24T10:57:31.695Z,68.68
2022-11-24T10:59:59.926Z,68.32
2022-11-24T11:02:33.082Z,67.99
2022-11-24T11:05:42.127Z,68.63
2022-11-24T11:08:19.772Z,69.30
2022-11-24T11:10:49.785Z,68.15
2022-11-24T11:13:25.823Z,67.29
2022-11-24T11:15:53.956Z,66.32
2022-11-24T11:18:24.023Z,65.12
2022-11-24T11:20:54.349Z,65.69
2022-11-24T11:23:26.687Z,63.62
2022-11-24T11:26:18.360Z,58.16
2022-11-24T11:31:15.632Z,52.41
2022-11-24T11:34:48.012Z,58.97
2022-11-24T11:37:16.856Z,56.96
2022-11-24T11:39:49.080Z,56.78
2022-11-24T11:42:45.359Z,57.00
2022-11-24T11:45:13.444Z,58.04
2022-11-24T11:47:44.589Z,58.86
2022-11-24T11:50:15.738Z,59.98
2022-11-24T11:53:01.221Z,60.02
2022-11-24T11:55:49.671Z,58.75
2022-11-24T11:58:30.902Z,58.75
2022-11-24T12:01:03.195Z,59.16
2022-11-24T12:03:42.151Z,57.66
2022-11-24T12:06:19.495Z,43.34
2022-11-24T12:09:18.815Z,44.21
2022-11-24T12:11:43.595Z,45.08
2022-11-24T12:14:20.511Z,50.38
2022-11-24T12:16:56.692Z,52.79
2022-11-24T12:19:34.424Z,54.47
2022-11-24T12:22:08.652Z,56.15
2022-11-24T12:24:43.147Z,56.62
2022-11-24T12:27:22.851Z,55.15
2022-11-24T12:30:04.504Z,54.83
2022-11-24T12:33:00.292Z,50.40
2022-11-24T12:35:31.494Z,52.45
2022-11-24T12:38:06.305Z,53.37
2022-11-24T12:40:46.924Z,53.82
2022-11-24T12:43:21.098Z,51.84
2022-11-24T12:45:55.328Z,51.21
2022-11-24T12:48:32.728Z,53.26
2022-11-24T12:51:01.216Z,52.79
2022-11-24T12:53:33.454Z,52.77
2022-11-24T12:56:10.277Z,52.78
2022-11-24T12:58:45.632Z,52.92
2022-11-24T13:01:18.596Z,47.67
2022-11-24T13:03:59.939Z,37.66
2022-11-24T13:06:31.528Z,32.79
2022-11-24T13:09:09.096Z,32.47
2022-11-24T13:11:41.619Z,34.76
2022-11-24T13:14:16.179Z,36.43
2022-11-24T13:19:43.379Z,41.74
2022-11-24T13:22:16.451Z,43.09
2022-11-24T13:24:45.921Z,45.65
2022-11-24T13:27:42.514Z,43.55
2022-11-24T13:30:55.327Z,37.53
2022-11-24T13:33:41.778Z,38.19
2022-11-24T13:36:31.740Z,45.12
2022-11-24T13:39:00.482Z,47.28
2022-11-24T13:42:43.721Z,47.24
2022-11-24T13:45:00.524Z,46.35
2022-11-24T13:47:42.245Z,44.14
2022-11-24T13:50:15.543Z,41.42
2022-11-24T13:52:49.029Z,39.10
2022-11-24T13:55:35.045Z,39.04
2022-11-24T13:58:28.740Z,34.54
2022-11-24T14:01:13.468Z,31.82
2022-11-24T14:04:07.049Z,36.77
2022-11-24T14:06:36.180Z,42.44
2022-11-24T14:09:24.484Z,44.25
2022-11-24T14:12:00.323Z,44.33
2022-11-24T14:14:28.400Z,42.77
2022-11-24T14:17:18.721Z,39.92
2022-11-24T14:19:47.655Z,37.69
2022-11-24T14:22:17.859Z,38.56
2022-11-24T14:24:46.748Z,43.35
2022-11-24T14:27:17.207Z,43.81
2022-11-24T14:29:56.405Z,41.00
2022-11-24T14:32:25.644Z,39.29
2022-11-24T14:34:54.405Z,38.49
2022-11-24T14:37:22.360Z,41.06
2022-11-24T14:39:50.181Z,40.25
2022-11-24T14:42:20.490Z,40.39
2022-11-24T14:44:52.709Z,42.59
2022-11-24T14:47:31.453Z,42.36
2022-11-24T14:50:09.463Z,43.82
2022-11-24T14:52:37.378Z,45.39
2022-11-24T14:55:21.716Z,45.46
2022-11-24T14:57:50.559Z,45.73
2022-11-24T15:00:20.736Z,46.84
2022-11-24T15:02:52.059Z,47.65
2022-11-24T15:05:20.487Z,48.25
2022-11-24T15:07:49.309Z,49.89
2022-11-24T15:10:23.103Z,50.94
2022-11-24T15:12:54.481Z,51.47
2022-11-24T15:15:24.911Z,52.74
2022-11-24T15:17:55.804Z,54.12
2022-11-24T15:20:28.080Z,55.06
2022-11-24T15:23:20.034Z,54.92
2022-11-24T15:25:48.161Z,54.39
2022-11-24T15:28:16.004Z,54.44
2022-11-24T15:30:43.747Z,56.24
2022-11-24T15:33:16.182Z,57.18
2022-11-24T15:35:44.333Z,57.30
2022-11-24T15:38:12.089Z,57.07
2022-11-24T15:40:40.572Z,56.95
2022-11-24T15:43:20.224Z,57.21
2022-11-24T15:45:48.001Z,57.29
2022-11-24T15:48:18.396Z,57.67
2022-11-24T15:50:46.495Z,57.97
2022-11-24T15:53:18.309Z,57.85
2022-11-24T15:55:46.093Z,57.80
2022-11-24T15:58:14.860Z,58.21
2022-11-24T16:00:42.741Z,58.24
2022-11-24T16:03:44.597Z,58.50
2022-11-24T16:05:59.777Z,59.01
2022-11-24T16:08:27.498Z,59.51
2022-11-24T16:10:55.974Z,59.77
2022-11-24T16:13:23.940Z,60.03
2022-11-24T16:15:51.856Z,60.04
2022-11-24T16:18:19.611Z,60.52
2022-11-24T16:20:47.443Z,61.32
2022-11-24T16:23:16.559Z,62.27
2022-11-24T16:25:44.338Z,62.46
2022-11-24T16:28:12.122Z,63.18
2022-11-24T16:30:39.873Z,63.12
2022-11-24T16:33:07.653Z,62.97
2022-11-24T16:35:35.452Z,63.11
2022-11-24T16:38:03.289Z,63.24
2022-11-24T16:40:32.471Z,63.37
2022-11-24T16:43:00.224Z,63.16
2022-11-24T16:45:28.109Z,63.99
2022-11-24T16:47:55.913Z,64.27
2022-11-24T16:50:23.702Z,64.41
2022-11-24T16:52:51.441Z,64.95
2022-11-24T16:55:19.200Z,65.15
2022-11-24T16:57:48.432Z,65.32
2022-11-24T17:00:16.888Z,65.65
2022-11-24T17:02:44.838Z,66.14
2022-11-24T17:05:12.632Z,66.38
2022-11-24T17:07:40.503Z,66.08
2022-11-24T17:10:09.254Z,66.62
2022-11-24T17:12:37.740Z,66.97
2022-11-24T17:15:31.766Z,66.69
2022-11-24T17:18:23.059Z,66.87
2022-11-24T17:20:43.604Z,66.92
2022-11-24T17:23:11.366Z,66.85
2022-11-24T17:25:39.111Z,67.09
2022-11-24T17:28:06.853Z,67.22
2022-11-24T17:30:37.674Z,67.68
2022-11-24T17:33:05.801Z,67.73
2022-11-24T17:35:34.946Z,67.35
2022-11-24T17:38:02.676Z,67.57
2022-11-24T17:40:31.188Z,67.13
2022-11-24T17:43:00.298Z,67.06
2022-11-24T17:45:28.391Z,66.76
2022-11-24T17:47:58.267Z,66.23
2022-11-24T17:50:26.676Z,66.41
2022-11-24T17:52:54.594Z,66.33
2022-11-24T17:55:22.469Z,65.90
2022-11-24T17:57:50.661Z,65.62
2022-11-24T18:00:19.366Z,66.21
2022-11-24T18:02:47.197Z,66.08
2022-11-24T18:05:17.392Z,65.87
2022-11-24T18:07:45.200Z,65.69
2022-11-24T18:10:13.200Z,66.23
2022-11-24T18:12:41.080Z,66.11
2022-11-24T18:15:09.808Z,65.59
2022-11-24T18:17:37.585Z,65.33
2022-11-24T18:20:06.224Z,65.41
2022-11-24T18:23:04.978Z,65.18
2022-11-24T18:25:23.080Z,64.69
2022-11-24T18:27:50.843Z,64.93
2022-11-24T18:30:19.033Z,65.26
2022-11-24T18:32:46.830Z,65.63
2022-11-24T18:35:14.573Z,65.61
2022-11-24T18:37:44.511Z,65.56
2022-11-24T18:40:12.697Z,65.38
2022-11-24T18:42:40.562Z,65.46
2022-11-24T18:45:09.388Z,64.99
2022-11-24T18:47:37.151Z,65.23
2022-11-24T18:50:05.925Z,65.19
2022-11-24T18:52:33.712Z,65.50
2022-11-24T18:55:04.084Z,64.75
2022-11-24T18:57:32.259Z,64.84
2022-11-24T19:00:00.026Z,64.99
2022-11-24T19:02:27.995Z,64.70
2022-11-24T19:04:55.774Z,64.52
2022-11-24T19:07:23.676Z,64.90
2022-11-24T19:09:51.528Z,64.91
2022-11-24T19:12:20.628Z,65.47
2022-11-24T19:14:48.443Z,65.63
2022-11-24T19:17:16.195Z,65.44
2022-11-24T19:19:43.923Z,64.90
2022-11-24T19:22:13.155Z,64.73
2022-11-24T19:24:41.483Z,64.82
2022-11-24T19:27:10.688Z,64.93
2022-11-24T19:29:43.065Z,64.96
2022-11-24T19:32:11.282Z,64.91
2022-11-24T19:34:39.427Z,64.32
2022-11-24T19:37:07.197Z,64.35
2022-11-24T19:39:34.969Z,64.13
2022-11-24T19:42:04.681Z,63.66
2022-11-24T19:44:32.608Z,64.46
2022-11-24T19:47:02.099Z,64.51
2022-11-24T19:49:29.843Z,64.55
2022-11-24T19:51:57.597Z,64.90
2022-11-24T19:54:25.333Z,65.75
2022-11-24T19:56:55.328Z,65.97
2022-11-24T19:59:23.839Z,65.64
2022-11-24T20:01:51.688Z,65.01
2022-11-24T20:04:21.368Z,65.42
2022-11-24T20:06:49.183Z,65.68
2022-11-24T20:09:18.354Z,65.71
2022-11-24T20:11:46.328Z,65.39
2022-11-24T20:14:15.630Z,65.02
2022-11-24T20:16:45.423Z,64.53
2022-11-24T20:19:14.562Z,64.19
2022-11-24T20:21:46.143Z,64.82
2022-11-24T20:24:15.847Z,64.55
2022-11-24T20:26:46.065Z,64.51
2022-11-24T20:29:15.078Z,64.84
2022-11-24T20:31:45.043Z,64.50
2022-11-24T20:34:13.598Z,63.99
2022-11-24T20:36:44.176Z,63.83
2022-11-24T20:39:16.143Z,64.34
2022-11-24T20:41:44.153Z,64.22
2022-11-24T20:44:15.227Z,64.94
2022-11-24T20:46:44.806Z,65.61
2022-11-24T20:49:14.434Z,65.81
2022-11-24T20:51:44.205Z,65.82
2022-11-24T20:54:13.956Z,66.26
2022-11-24T20:56:43.731Z,65.95
2022-11-24T20:59:13.133Z,65.48
2022-11-24T21:01:42.511Z,66.35
2022-11-24T21:04:12.176Z,66.10
2022-11-24T21:06:40.248Z,65.79
2022-11-24T21:09:10.037Z,66.04
2022-11-24T21:11:38.853Z,66.62
2022-11-24T21:14:07.131Z,65.89
2022-11-24T21:16:36.716Z,66.34
2022-11-24T21:19:06.365Z,66.66
2022-11-24T21:21:35.985Z,66.73
2022-11-24T21:24:04.775Z,66.96
2022-11-24T21:26:35.904Z,66.95
2022-11-24T21:29:04.558Z,67.05
2022-11-24T21:31:35.135Z,67.27
2022-11-24T21:34:02.908Z,66.97
2022-11-24T21:36:32.899Z,67.11
2022-11-24T21:39:01.742Z,66.72
2022-11-24T21:41:30.491Z,66.79
2022-11-24T21:43:59.660Z,66.60
2022-11-24T21:46:29.208Z,66.80
2022-11-24T21:48:56.948Z,66.78
2022-11-24T21:51:24.718Z,68.10
2022-11-24T21:53:52.557Z,67.94
2022-11-24T21:56:21.489Z,68.22
2022-11-24T21:58:50.668Z,68.76
2022-11-24T22:01:21.605Z,69.14
2022-11-24T22:03:49.528Z,69.57
2022-11-24T22:06:17.727Z,69.82
2022-11-24T22:08:46.004Z,69.36
2022-11-24T22:11:15.337Z,69.51
2022-11-24T22:13:43.803Z,69.20
2022-11-24T22:16:13.329Z,69.43
2022-11-24T22:18:43.978Z,69.77
2022-11-24T22:21:13.276Z,69.22
2022-11-24T22:23:41.304Z,68.61
2022-11-24T22:26:13.569Z,68.92
2022-11-24T22:28:41.862Z,68.54
2022-11-24T22:31:11.292Z,68.72
2022-11-24T22:33:39.343Z,68.64
2022-11-24T22:36:09.080Z,67.68
2022-11-24T22:38:36.947Z,66.90
2022-11-24T22:41:05.510Z,67.22
2022-11-24T22:43:34.159Z,67.86
2022-11-24T22:46:05.969Z,68.20
2022-11-24T22:48:34.302Z,69.17
2022-11-24T22:51:03.395Z,69.32
2022-11-24T22:53:32.681Z,69.57
2022-11-24T22:56:03.765Z,69.42
2022-11-24T22:58:31.782Z,68.55
2022-11-24T23:01:05.195Z,68.60
2022-11-24T23:03:33.408Z,68.82
2022-11-24T23:06:01.563Z,68.25
2022-11-24T23:08:29.320Z,68.69
2022-11-24T23:11:01.689Z,68.48
2022-11-24T23:13:29.649Z,68.56
2022-11-24T23:16:01.476Z,69.01
2022-11-24T23:18:29.345Z,69.53
2022-11-24T23:20:57.186Z,69.35
2022-11-24T23:23:24.964Z,68.06
2022-11-24T23:25:52.710Z,67.91
2022-11-24T23:28:21.885Z,67.86
2022-11-24T23:30:49.652Z,67.58
2022-11-24T23:33:17.595Z,68.24
2022-11-24T23:35:45.354Z,68.15
2022-11-24T23:38:13.146Z,68.47
2022-11-24T23:40:40.875Z,68.47
2022-11-24T23:43:08.645Z,68.31
2022-11-24T23:45:38.022Z,68.30
2022-11-24T23:48:08.471Z,68.59
2022-11-24T23:50:36.336Z,68.65
2022-11-24T23:53:04.100Z,67.50
2022-11-24T23:55:31.990Z,67.22
2022-11-24T23:57:59.775Z,67.29
